Weather observations for the past three days for
Pella, Pella Municipal Airport
Imperial (Metric)
Date Time (cdt) Wind (mph) Vis. (mi.) Weather Sky Cond. Temperature (ºF) Relative Humidity Wind Chill (°F) Heat Index (°F) Pressure Precipitation (in)
Air Dwpt 6 hour altimeter (in) sea level (mb) 1 hr 3 hr 6 hr
Max. Min.
30 19:55 SE 8 10.00 Fair CLR 82 73.2 75% 88 29.85 0.0
30 19:35 SE 8 10.00 Fair CLR 82.2 73.8 76% 88 29.85 0.0
30 19:15 SE 8 10.00 Fair CLR 82.4 74.8 78% 89 29.85 0.0
30 18:55 SE 9 10.00 Fair CLR 83.3 74.8 84.9 77.9 76% 91 29.85 0.0
30 18:35 SE 8 10.00 Fair CLR 83.8 74.8 74% 92 29.85 0.0
30 18:15 SE 8 10.00 Fair CLR 84.2 74.8 74% 92 29.85 0.0
30 17:55 SE 9 10.00 Fair CLR 84.2 74.1 72% 92 29.85 0.0
30 17:35 SE 9 10.00 Fair CLR 84.2 73.8 71% 91 29.85 0.0
30 17:15 SE 7 10.00 Fair CLR 83.1 73 72% 89 29.86 0.0
30 16:55 SE 9 10.00 Fair CLR 83.8 73.2 70% 90 29.85 0.0
30 16:35 SE 8 10.00 Fair CLR 82.9 72.5 71% 88 29.86 0.0
30 16:15 SE 9 10.00 Fair CLR 81.7 72.1 73% 86 29.86 0.0
30 15:55 SE 8 10.00 Fair CLR 81.9 72 72% 87 29.87 0.0
30 15:35 SE 10 10.00 Fair CLR 80.4 70.9 73% 84 29.87 0.0
30 15:15 SE 7 10.00 Fair CLR 79.9 70.5 73% 83 29.88 0.0
30 14:55 SE 12 10.00 Fair CLR 79.7 69.8 72% 83 29.88 0.0
30 14:35 SE 9 10.00 Partly Cloudy SCT120 79.7 69.8 72% 83 29.89 0.0
30 14:15 SE 6 10.00 Partly Cloudy SCT120 79.5 69.6 72% 82 29.9 0.0
30 13:55 SE 8 10.00 Fair CLR 79.5 69.3 71% 82 29.9 0.0
30 13:35 S 8 10.00 Partly Cloudy SCT120 79 69.4 73% 82 29.9 0.0
30 13:15 SE 8 10.00 Fair CLR 78.1 69.4 75% 80 29.89 0.0
30 12:55 S 6 10.00 Partly Cloudy SCT120 78.3 69.8 79 73.8 75% 81 29.9 0.0
30 12:35 SE 7 10.00 Partly Cloudy SCT120 77.9 70.7 79% 80 29.91 0.0
30 12:15 SW 5 10.00 Partly Cloudy SCT065 SCT100 SCT120 78.1 70.3 77% 80 29.9 0.0
30 11:55 SW 5 10.00 Light Rain SCT046 SCT065 BKN100 76.8 69.4 78% 78 29.9 0.0
30 11:35 W 5 10.00 Overcast SCT044 SCT080 OVC120 75.4 69.6 82% 76 29.91 0.0
30 11:15 W 7 10.00 Rain SCT045 SCT070 BKN095 75.7 68.4 78% 77 29.9 0.0
30 10:55 W 8 10.00 Partly Cloudy SCT120 76.1 67.6 75% 77 29.9 0.0
30 10:35 SW 8 10.00 Fair CLR 75.9 67.5 75% 77 29.89 0.0
30 10:15 SW 9 10.00 Partly Cloudy SCT100 75.4 66.6 74% 77 29.88 0.0
30 09:55 S 6 10.00 Light Rain SCT049 SCT070 OVC100 74.1 66 76% 29.87 0.0
30 09:35 SW 13 10.00 Light Rain SCT060 SCT080 OVC100 74.3 65.8 75% 29.88 0.0
30 09:15 SW 13 G 17 10.00 Light Rain SCT065 SCT075 BKN110 76.6 64.8 67% 78 29.89 0.0
30 08:55 SW 13 G 21 10.00 Mostly Cloudy BKN110 78.6 64.4 62% 80 29.89 0.0
30 08:35 S 13 10.00 Partly Cloudy SCT110 77.5 63.9 63% 79 29.89 0.0
30 08:15 S 9 10.00 Partly Cloudy SCT110 77.5 63.7 62% 79 29.88 0.0
30 07:55 S 9 10.00 Fair CLR 77.4 62.8 61% 79 29.88 0.0
30 07:35 SW 9 10.00 Partly Cloudy SCT110 76.8 62.6 62% 79 29.89 0.0
30 07:15 S 7 10.00 Partly Cloudy SCT110 77.4 62.4 60% 79 29.88 0.0
30 06:55 S 6 10.00 Mostly Cloudy BKN110 77.2 62.4 77.5 75 60% 79 29.87 0.0
30 06:35 S 7 10.00 Partly Cloudy SCT120 77 62.6 61% 79 29.87 0.0
30 06:15 S 9 10.00 Partly Cloudy SCT110 76.3 63 64% 78 29.88 0.0
30 05:55 S 7 10.00 Fair CLR 76.1 63.1 64% 78 29.88 0.0
30 05:35 S 8 10.00 Fair CLR 76.3 63.3 64% 78 29.88 0.0
30 05:15 S 7 10.00 Fair CLR 75.6 63.5 66% 77 29.88 0.0
30 04:55 S 8 10.00 Fair CLR 75.6 63.5 66% 77 29.88 0.0
30 04:35 S 7 10.00 Fair CLR 75.4 63.5 67% 77 29.88 0.0
30 04:15 S 9 10.00 Fair CLR 75 63.5 68% 77 29.88 0.0
30 03:55 S 7 10.00 Fair CLR 75.7 63.7 66% 78 29.88 0.0
30 03:35 S 6 10.00 Fair CLR 75.6 63.7 67% 77 29.88 0.0
30 03:15 S 8 10.00 Fair CLR 75.4 63.9 68% 77 29.88 0.0
30 02:55 S 8 10.00 Fair CLR 75.6 64 68% 77 29.87 0.0
30 02:35 S 9 10.00 Fair CLR 75.7 64.2 68% 78 29.88 0.0
30 02:15 S 10 10.00 Fair CLR 75.7 64.6 68% 77 29.88 0.0
30 01:55 S 9 G 17 10.00 Fair CLR 75.7 65.1 70% 77 29.88 0.0
30 01:35 S 8 10.00 Fair CLR 75.4 65.5 71% 77 29.89 0.0
30 01:15 S 9 10.00 Fair CLR 75.6 65.8 72% 77 29.89 0.0
30 00:55 S 7 10.00 Fair CLR 75.4 66.2 80.4 75.4 73% 77 29.89 0.0
30 00:35 SE 9 10.00 Fair CLR 75.9 66.4 72% 77 29.89 0.0
30 00:15 S 10 10.00 Fair CLR 76.1 66.7 73% 78 29.89 0.0
29 23:55 S 10 G 16 10.00 Fair CLR 76.5 66.9 72% 78 29.89 0.0
29 23:35 S 10 G 17 10.00 Fair CLR 76.5 67.1 73% 78 29.88 0.0
29 23:15 S 10 G 16 10.00 Fair CLR 76.5 67.3 73% 78 29.89 0.0
29 22:55 S 9 10.00 Fair CLR 76.5 67.3 73% 78 29.89 0.0
29 22:35 S 9 10.00 Fair CLR 76.6 67.5 73% 78 29.88 0.0
29 22:15 S 12 10.00 Fair CLR 77.2 67.6 73% 79 29.89 0.0
29 21:55 S 10 10.00 Fair CLR 77.5 67.8 72% 79 29.89 0.0
29 21:35 S 10 10.00 Fair CLR 77.9 68.2 72% 80 29.88 0.0
29 21:15 S 10 G 16 10.00 Fair CLR 78.1 68.5 73% 80 29.88 0.0
29 20:55 S 13 10.00 Fair CLR 78.3 68.7 73% 80 29.87 0.0
29 20:35 S 13 G 20 10.00 Fair CLR 78.6 69.1 73% 81 29.86 0.0
29 20:15 S 15 G 23 10.00 Fair CLR 79.2 69.3 72% 82 29.86 0.0
29 19:55 S 10 10.00 Fair CLR 79.3 69.4 72% 82 29.86 0.0
29 19:35 SE 13 G 18 10.00 Fair CLR 79.3 69.4 72% 82 29.86 0.0
29 19:15 SE 13 G 18 10.00 Fair CLR 79.9 69.3 70% 83 29.86 0.0
29 18:55 S 16 G 21 10.00 Fair CLR 80.2 69.8 82.9 68.9 71% 83 29.86 0.0
29 18:35 SE 8 10.00 Fair CLR 80.6 70.5 71% 84 29.87 0.0
29 18:15 S 13 G 20 10.00 Fair CLR 82.2 70 67% 86 29.87 0.0
29 17:55 S 12 10.00 Fair CLR 82.2 70.2 67% 86 29.88 0.0
29 17:35 S 14 G 18 10.00 Fair CLR 82.8 69.8 65% 87 29.88 0.0
29 17:15 S 14 G 20 10.00 Fair CLR 82.6 70 66% 87 29.89 0.0
29 16:55 S 15 G 21 10.00 Fair CLR 82.4 69.6 65% 86 29.89 0.0
29 16:35 S 14 G 22 10.00 Fair CLR 81.7 70 68% 85 29.89 0.0
29 16:15 SE 12 G 17 10.00 Fair CLR 79.7 69.8 72% 83 29.89 0.0
29 15:55 SE 12 G 22 10.00 Fair CLR 77.9 68.9 74% 80 29.9 0.0
29 15:35 SE 16 G 22 10.00 Fair CLR 76.5 67.8 75% 78 29.92 0.0
29 15:15 SE 14 G 24 10.00 Partly Cloudy SCT110 74.7 67.3 78% 29.93 0.0
29 14:55 SE 14 G 24 10.00 Mostly Cloudy BKN110 72.9 66.2 80% 29.95 0.0
29 14:35 SE 17 G 21 10.00 Overcast OVC110 71.2 65.5 82% 29.96 0.0
29 14:15 SE 14 10.00 Overcast OVC120 69.4 64.9 86% 29.97 0.0
29 13:55 E 10 10.00 Overcast SCT060 SCT070 OVC120 69.1 65.1 87% 29.99 0.0
29 13:35 SE 9 10.00 Overcast SCT055 SCT080 OVC120 69.3 64.4 85% 30 0.0
29 13:15 SE 7 10.00 Mostly Cloudy BKN120 69.6 64.4 84% 29.99 0.0
29 12:55 SE 9 10.00 Fair CLR 68.7 64.4 68.9 64.6 86% 29.98 0.0 0.02 0.08
29 12:35 SE 12 10.00 Partly Cloudy SCT032 SCT040 SCT075 67.5 64 89% 29.98 0.0 0.02
29 12:15 SE 12 10.00 Light Rain SCT030 BKN075 OVC100 65.7 63.5 93% 29.99 0.0 0.02
29 11:55 SE 10 7.00 Rain BKN110 64.6 63.1 95% 30.03 0.0 0.05
29 11:35 SE 9 7.00 Light Rain BKN110 64.6 63.3 96% 30.07 0.0 0.03
29 11:15 Calm 5.00 Rain Fog/Mist SCT055 OVC100 64.9 63 93% 30.1 0.0 0.02
29 10:55 E 3 5.00 Light Rain Fog/Mist SCT055 SCT070 OVC100 64.9 62.6 92% 30.1 0.0 0.01
29 10:35 N 7 10.00 Light Rain BKN090 BKN110 64.9 62.8 93% 30.11 0.0
29 10:15 N 7 10.00 Light Rain OVC090 65.7 62.4 89% 30.12 0.0
29 09:55 N 3 10.00 Light Rain SCT075 BKN100 BKN120 68.4 61.3 78% 30.07 0.0
29 09:35 SE 6 10.00 Fair CLR 68.5 60.8 76% 30.05 0.0
29 09:15 SE 7 10.00 Partly Cloudy SCT060 SCT075 SCT120 68 60.8 78% 30.04 0.0
29 08:55 SE 9 10.00 Fair CLR 68 60.6 77% 30.05 0.0
29 08:35 S 10 10.00 Fair CLR 67.6 60.6 78% 30.05 0.0
29 08:15 S 9 10.00 Fair CLR 66.9 60.4 80% 30.05 0.0
29 07:55 S 8 10.00 Fair CLR 66.7 60.3 80% 30.05 0.0
29 07:35 S 9 10.00 Fair CLR 66.2 60.3 81% 30.06 0.0
29 07:15 SE 7 10.00 Fair CLR 65.5 60.4 84% 30.06 0.0
29 06:55 S 6 10.00 Fair CLR 65.5 60.3 67.3 63.7 83% 30.06 0.0
29 06:35 SE 7 10.00 Fair CLR 65.1 60.3 84% 30.05 0.0
29 06:15 SE 7 10.00 Fair CLR 65.1 60.3 84% 30.04 0.0
29 05:55 SE 7 10.00 Fair CLR 64.4 60.3 87% 30.04 0.0
29 05:35 SE 7 10.00 Fair CLR 64.2 60.3 87% 30.05 0.0
29 05:15 SE 6 10.00 Fair CLR 63.7 60.3 89% 30.06 0.0
29 04:55 SE 5 10.00 Fair CLR 64.4 60.3 87% 30.07 0.0
29 04:35 S 7 10.00 Fair CLR 65.1 60.3 84% 30.05 0.0
29 04:15 SE 7 10.00 Fair CLR 64.9 60.6 86% 30.06 0.0
29 03:55 SE 7 10.00 Fair CLR 65.1 60.6 85% 30.06 0.0
29 03:35 SE 6 10.00 Fair CLR 65.3 60.6 85% 30.07 0.0
29 03:15 SE 7 10.00 Fair CLR 65.3 60.8 85% 30.07 0.0
29 02:55 SE 7 10.00 Fair CLR 65.7 61 85% 30.08 0.0
29 02:35 SE 6 10.00 Fair CLR 65.5 61.2 86% 30.08 0.0
29 02:15 SE 5 10.00 Fair CLR 65.3 61.3 87% 30.08 0.0
29 01:55 SE 6 10.00 Fair CLR 66.2 61.3 84% 30.07 0.0
29 01:35 S 6 10.00 Fair CLR 66.9 61.5 83% 30.08 0.0
29 01:15 SE 6 10.00 Fair CLR 67.3 61.7 82% 30.08 0.0
29 00:55 SE 5 10.00 Fair CLR 66.7 62.1 77.7 65.8 85% 30.08 0.0
29 00:35 SE 6 10.00 Fair CLR 67.3 62.2 84% 30.08 0.0
29 00:15 SE 3 10.00 Fair CLR 66.2 62.1 87% 30.08 0.0
28 23:55 SE 5 10.00 Fair CLR 67.1 62.6 86% 30.08 0.0
28 23:35 SE 5 10.00 Fair CLR 68 63 84% 30.08 0.0
28 23:15 SE 6 10.00 Fair CLR 68.7 63.5 84% 30.09 0.0
28 22:55 SE 5 10.00 Fair CLR 69.1 63.5 83% 30.08 0.0
28 22:35 SE 5 10.00 Fair CLR 68.4 63.7 85% 30.09 0.0
28 22:15 SE 5 10.00 Fair CLR 68.2 63.9 86% 30.09 0.0
28 21:55 SE 3 10.00 Fair CLR 68.7 64 85% 30.09 0.0
28 21:35 SE 5 10.00 Fair CLR 69.6 64.2 83% 30.09 0.0
28 21:15 SE 5 10.00 Fair CLR 69.8 64.8 84% 30.09 0.0
28 20:55 SE 6 10.00 Fair CLR 70 64.9 84% 30.08 0.0
28 20:35 SE 5 10.00 Fair CLR 71.1 65.1 82% 30.08 0.0
28 20:15 SE 5 10.00 Fair CLR 70.5 65.7 85% 30.08 0.0
28 19:55 SE 3 10.00 Fair CLR 72.7 65.8 79% 30.08 0.0
28 19:35 SE 3 10.00 Fair CLR 74.7 65.5 73% 30.08 0.0
28 19:15 SE 3 10.00 Fair CLR 76.8 64.2 65% 79 30.08 0.0
28 18:55 S 5 10.00 Fair CLR 77.9 64.8 84.6 77.7 64% 80 30.08 0.0
28 18:35 S 6 10.00 Fair CLR 80.1 63.7 57% 82 30.09 0.0
28 18:15 S 6 10.00 Fair CLR 81.5 62.8 53% 83 30.09 0.0
28 17:55 SW 7 10.00 Fair CLR 82.2 63.3 53% 83 30.1 0.0
28 17:35 S 5 10.00 Fair CLR 81.7 63 53% 83 30.09 0.0
28 17:15 SW 7 10.00 Fair CLR 81.9 62.1 51% 83 30.09 0.0
28 16:55 S 5 10.00 Fair CLR 82.9 62.1 49% 84 30.1 0.0
28 16:35 S 6 10.00 Partly Cloudy SCT050 83.1 62.8 50% 84 30.1 0.0
28 16:15 S 6 10.00 Fair CLR 82.8 63.1 52% 84 30.11 0.0
28 15:55 S 8 10.00 Partly Cloudy SCT055 83.5 62.6 49% 84 30.11 0.0
28 15:35 S 8 10.00 Fair CLR 83.5 62.2 49% 84 30.11 0.0
28 15:15 SW 3 10.00 Fair CLR 83.7 61.2 47% 84 30.12 0.0
28 14:55 SE 7 10.00 Fair CLR 83.5 61.5 48% 84 30.12 0.0
28 14:35 S 6 10.00 Fair CLR 83.3 61.9 49% 84 30.13 0.0
28 14:15 SW 9 10.00 Fair CLR 82.4 59 45% 82 30.13 0.0
28 13:55 S 7 10.00 Fair CLR 82.9 62.2 50% 84 30.13 0.0
28 13:35 SW 6 10.00 Fair CLR 82.8 61.3 48% 83 30.14 0.0
28 13:15 Calm 10.00 Fair CLR 81.9 61.3 50% 83 30.15 0.0
28 12:55 S 3 10.00 Fair CLR 81.3 61.9 82.2 57.4 52% 82 30.16 0.0
28 12:35 W 3 10.00 Fair CLR 80.6 59.5 49% 81 30.17 0.0
28 12:15 Calm 10.00 Fair CLR 80.8 57.4 45% 81 30.17 0.0
28 11:55 Calm 10.00 Fair CLR 79 60.6 53% 80 30.17 0.0
28 11:35 SW 3 10.00 Partly Cloudy SCT006 80.1 64.6 59% 82 30.18 0.0
28 11:15 NW 3 7.00 Fair CLR 79 63.3 59% 81 30.17 0.0
28 10:55 SW 3 7.00 Fair with Haze CLR 78.1 64.6 63% 80 30.17 0.0
28 10:35 Calm 10.00 Partly Cloudy SCT005 76.5 63.1 64% 78 30.17 0.0
28 10:15 Calm 10.00 Partly Cloudy SCT005 75 64 69% 77 30.17 0.0
28 09:55 SW 3 7.00 Fair CLR 71.6 67.6 87% 30.18 0.0
28 09:35 Calm 10.00 Fair CLR 70.7 68 91% 30.18 0.0
28 09:15 SW 3 10.00 Fair CLR 68.7 68 98% 30.18 0.0
28 08:55 W 3 7.00 Fog/Mist SCT002 66.4 66.2 99% 30.18 0.0
28 08:35 Calm 0.15 Fog OVC002 64.8 64.8 100% 30.18 0.0
28 08:15 Calm 3.50 Fog/Mist SCT002 63.5 63.3 99% 30.17 0.0
28 07:55 Calm 3.00 Fog/Mist CLR 61.9 61.7 99% 30.17 0.0
28 07:35 Calm 1.75 Fog/Mist VV007 59.7 59.5 99% 30.17 0.0
28 07:15 Calm 2.00 Fog/Mist SCT010 58.5 58.3 99% 30.15 0.0
28 06:55 Calm 1.00 Fog/Mist BKN010 57.4 57.4 62.8 57.4 100% 30.15 0.0
28 06:35 Calm 1.75 Fog/Mist VV007 58.1 57.9 99% 30.14 0.0
28 06:15 Calm 2.50 Fog/Mist CLR 57.4 57.2 99% 30.14 0.0
28 05:55 Calm 2.00 Fog/Mist VV007 57.9 57.7 99% 30.13 0.0
28 05:35 Calm 0.75 Fog BKN004 BKN011 58.3 58.1 99% 30.13 0.0
28 05:15 Calm 1.00 Fog/Mist OVC002 58.3 58.1 99% 30.12 0.0
28 04:55 Calm 2.00 Fog/Mist OVC002 59.2 58.8 99% 30.13 0.0
28 04:35 Calm 0.25 Fog OVC002 60.6 60.4 99% 30.13 0.0
28 04:15 Calm 0.25 Fog OVC002 61.2 61 99% 30.13 0.0
28 03:55 Calm 0.25 Fog OVC002 60.4 60.1 99% 30.12 0.0
28 03:35 Calm 0.15 Fog OVC002 61.5 61.2 99% 30.12 0.0
28 03:15 Calm 0.50 Fog BKN004 BKN010 62.1 61.5 98% 30.12 0.0
28 02:55 Calm 5.00 Fog/Mist CLR 60.8 59.7 96% 30.12 0.0
28 02:35 Calm 7.00 Fog/Mist CLR 61.9 60.8 96% 30.12 0.0
28 02:15 Calm 10.00 Fair CLR 61.2 59.9 96% 30.12 0.0
28 01:55 Calm 5.00 Fog/Mist CLR 61.3 60.3 96% 30.11 0.0
28 01:35 Calm 10.00 Fair CLR 62.1 60.3 94% 30.11 0.0
28 01:15 Calm 10.00 Fair CLR 61.9 60.3 94% 30.11 0.0
28 00:55 Calm 7.00 Fog/Mist CLR 61.5 60.4 76.6 61.2 96% 30.11 0.0
28 00:35 Calm 10.00 Fair CLR 61.5 60.1 95% 30.1 0.0
28 00:15 Calm 10.00 Fair CLR 64.2 61.2 90% 30.1 0.0
27 23:55 Calm 10.00 Fair CLR 64 61.3 91% 30.1 0.0
27 23:35 Calm 10.00 Fair CLR 65.3 61.5 88% 30.09 0.0
27 23:15 Calm 10.00 Fair CLR 65.1 61.7 89% 30.09 0.0
27 22:55 Calm 5.00 Fog/Mist CLR 64.9 62.2 91% 30.09 0.0
27 22:35 Calm 10.00 Fair CLR 66.6 62.4 87% 30.09 0.0
27 22:15 Calm 10.00 Partly Cloudy SCT060 68.4 61.5 79% 30.09 0.0
27 21:55 Calm 5.00 Partly Cloudy with Haze SCT060 SCT070 68.4 62.2 81% 30.09 0.0
27 21:35 Calm 10.00 Mostly Cloudy BKN055 69.4 62.2 78% 30.09 0.0
27 21:15 Calm 10.00 Mostly Cloudy BKN055 69.3 62.2 78% 30.08 0.0
27 20:55 Calm 10.00 Fair CLR 67.6 62.8 85% 30.07 0.0
27 20:35 Calm 5.00 Fair with Haze CLR 69.1 62.2 79% 30.07 0.0
27 20:15 Calm 4.00 Fair with Haze CLR 70 62.4 77% 30.06 0.0
Date Time (cdt) Wind (mph) Vis. (mi.) Weather Sky Cond. Air Dwpt Max. Min. Relative Humidity Wind Chill (°F) Heat Index (°F) altimeter (in) sea level (mb) 1 hr 3 hr 6 hr
6 hour
Temperature (ºF) Pressure Precipitation (in)